Time;durP1;ratioP1;P1;durP2;ratioP2;P2;SDS_P1;SDS_P2;PMS_P1;PMS_P2;Temp;Humidity;BMP_temperature;BMP_pressure;BME280_temperature;BME280_humidity;BME280_pressure;Samples;Min_cycle;Max_cycle;Signal;HPM_P1;HPM_P2
2022/03/21 00:01:00;;;;;;;0.40;0.30;;;;;;;6.91;39.58;103156.69;5134378;27;20958;-75
2022/03/21 00:03:30;;;;;;;0.40;0.30;;;;;;;6.80;39.72;103152.78;5134651;27;20442;-75
2022/03/21 00:05:57;;;;;;;0.40;0.30;;;;;;;6.90;39.62;103154.19;5134553;27;20478;-76
2022/03/21 00:08:24;;;;;;;0.40;0.30;;;;;;;6.88;39.60;103150.91;5134584;27;20438;-76
2022/03/21 00:10:52;;;;;;;0.40;0.30;;;;;;;6.87;39.43;103154.66;5134349;27;20441;-76
2022/03/21 00:13:19;;;;;;;0.40;0.30;;;;;;;6.95;38.91;103149.00;5134286;27;20829;-75
2022/03/21 00:15:47;;;;;;;0.40;0.30;;;;;;;6.96;38.90;103158.75;5134622;27;20439;-75
2022/03/21 00:18:15;;;;;;;7.03;6.70;;;;;;;6.91;39.17;103150.50;5134581;28;20445;-76
2022/03/21 00:20:43;;;;;;;0.40;0.30;;;;;;;6.85;39.51;103162.09;5134563;28;20454;-76
2022/03/21 00:23:10;;;;;;;0.40;0.30;;;;;;;6.80;39.58;103150.09;5135070;27;20438;-75
2022/03/21 00:25:37;;;;;;;0.40;0.30;;;;;;;6.84;39.58;103147.81;5138473;27;20475;-75
2022/03/21 00:28:04;;;;;;;0.40;0.30;;;;;;;6.89;39.49;103152.56;5138664;27;20470;-76
2022/03/21 00:30:31;;;;;;;0.87;0.83;;;;;;;6.91;38.91;103151.31;5138704;27;20443;-76
2022/03/21 00:32:58;;;;;;;0.40;0.30;;;;;;;6.95;39.05;103157.94;5138618;27;20484;-76
2022/03/21 00:35:25;;;;;;;0.40;0.30;;;;;;;6.97;39.25;103160.41;5138527;27;20438;-76
2022/03/21 00:37:53;;;;;;;0.40;0.30;;;;;;;6.96;39.01;103169.53;5138459;27;20462;-76
2022/03/21 00:40:20;;;;;;;1.47;1.37;;;;;;;6.92;39.62;103163.75;5138425;27;20435;-75
2022/03/21 00:42:49;;;;;;;0.40;0.30;;;;;;;6.98;38.93;103170.97;5138670;27;20442;-76
2022/03/21 00:45:17;;;;;;;0.40;0.30;;;;;;;6.95;39.29;103170.53;5138386;27;20475;-75
2022/03/21 00:47:45;;;;;;;2.03;1.93;;;;;;;6.95;39.21;103167.84;5138145;27;20442;-75
2022/03/21 00:50:13;;;;;;;0.40;0.30;;;;;;;6.94;39.31;103169.72;5138357;27;20442;-76
2022/03/21 00:52:41;;;;;;;0.40;0.30;;;;;;;6.96;39.58;103172.22;5138219;27;20814;-76
2022/03/21 00:55:11;;;;;;;0.40;0.30;;;;;;;6.89;39.65;103179.50;5138276;27;20439;-76
2022/03/21 00:57:40;;;;;;;0.63;0.60;;;;;;;6.87;39.92;103173.50;5138151;27;20954;-76
2022/03/21 01:00:09;;;;;;;0.40;0.30;;;;;;;6.73;39.92;103173.53;5137913;27;20954;-76
2022/03/21 01:02:36;;;;;;;0.97;0.97;;;;;;;6.70;40.08;103176.66;5138237;27;20446;-76
2022/03/21 01:05:03;;;;;;;0.40;0.30;;;;;;;6.64;40.46;103168.56;5137917;27;20517;-76
2022/03/21 01:07:30;;;;;;;0.40;0.30;;;;;;;6.69;40.34;103177.69;5137919;27;20473;-75
2022/03/21 01:09:57;;;;;;;0.40;0.30;;;;;;;6.68;40.18;103167.94;5137710;27;20935;-75
2022/03/21 01:12:24;;;;;;;0.40;0.30;;;;;;;6.66;40.36;103164.63;5137707;27;20426;-75
2022/03/21 01:14:52;;;;;;;1.53;1.43;;;;;;;6.60;40.57;103157.41;5137754;27;20437;-76
2022/03/21 01:17:18;;;;;;;0.40;0.30;;;;;;;6.53;40.92;103160.09;5137796;27;20455;-76
2022/03/21 01:19:45;;;;;;;0.47;0.40;;;;;;;6.47;40.93;103155.56;5137922;27;20443;-76
2022/03/21 01:22:13;;;;;;;0.40;0.30;;;;;;;6.44;40.93;103147.91;5137716;27;20434;-75
2022/03/21 01:24:39;;;;;;;0.40;0.30;;;;;;;6.42;40.75;103147.31;5137881;27;20499;-75
2022/03/21 01:27:07;;;;;;;0.40;0.30;;;;;;;6.51;40.58;103142.53;5137221;27;20489;-75
2022/03/21 01:29:35;;;;;;;3.97;3.70;;;;;;;6.50;40.97;103146.22;5137632;27;20445;-76
2022/03/21 01:32:02;;;;;;;0.40;0.30;;;;;;;6.53;40.99;103140.44;5137778;27;20438;-75
2022/03/21 01:34:29;;;;;;;0.40;0.40;;;;;;;6.57;40.87;103141.66;5136985;27;20498;-75
2022/03/21 01:36:56;;;;;;;0.40;0.30;;;;;;;6.57;40.67;103137.09;5136691;27;20458;-77
2022/03/21 01:39:23;;;;;;;0.40;0.30;;;;;;;6.55;40.87;103135.66;5137626;27;20438;-75
2022/03/21 01:41:50;;;;;;;0.40;0.30;;;;;;;6.51;40.82;103137.97;5137470;27;20508;-76
2022/03/21 01:44:17;;;;;;;0.40;0.30;;;;;;;6.49;41.29;103137.31;5137408;27;20437;-75
2022/03/21 01:46:45;;;;;;;1.23;1.23;;;;;;;6.48;40.64;103137.56;5137274;27;20494;-75
2022/03/21 01:49:13;;;;;;;0.40;0.30;;;;;;;6.45;41.07;103133.41;5136937;27;20950;-75
2022/03/21 01:51:41;;;;;;;0.40;0.37;;;;;;;6.50;40.76;103138.16;5137281;27;20446;-75
2022/03/21 01:56:53;;;;;;;0.40;0.30;;;;;;;6.54;39.96;103139.38;5137186;27;20488;-76
2022/03/21 01:59:21;;;;;;;0.40;0.30;;;;;;;6.41;40.71;103137.53;5137061;27;20438;-75
2022/03/21 02:01:50;;;;;;;0.80;0.80;;;;;;;6.42;40.68;103139.22;5136725;27;20847;-76
2022/03/21 02:04:16;;;;;;;0.40;0.30;;;;;;;6.39;40.60;103141.50;5137197;27;20437;-75
2022/03/21 02:06:44;;;;;;;0.40;0.30;;;;;;;6.36;40.99;103139.22;5136970;27;20482;-75
2022/03/21 02:09:10;;;;;;;0.40;0.30;;;;;;;6.38;40.38;103131.78;5136904;27;20464;-75
2022/03/21 02:11:38;;;;;;;0.50;0.43;;;;;;;6.22;40.80;103131.16;5136830;27;20439;-75
2022/03/21 02:14:06;;;;;;;0.40;0.30;;;;;;;6.20;40.52;103127.88;5136672;27;20513;-75
2022/03/21 02:16:34;;;;;;;0.93;0.93;;;;;;;6.25;39.89;103130.75;5136374;27;20990;-75
2022/03/21 02:19:07;;;;;;;4.83;4.40;;;;;;;6.14;40.93;103133.25;5136681;27;20437;-75
2022/03/21 02:21:42;;;;;;;3.17;2.97;;;;;;;6.17;40.74;103122.88;5136301;27;20938;-75
2022/03/21 02:24:15;;;;;;;0.40;0.30;;;;;;;6.27;39.81;103120.59;5136486;27;20826;-75
2022/03/21 02:26:45;;;;;;;0.60;0.60;;;;;;;6.15;40.04;103116.88;5136166;27;20490;-75
2022/03/21 02:29:13;;;;;;;0.40;0.30;;;;;;;6.10;41.14;103127.44;5136396;27;20446;-75
2022/03/21 02:31:40;;;;;;;0.40;0.30;;;;;;;6.09;41.05;103119.59;5136459;27;20462;-75
2022/03/21 02:34:08;;;;;;;0.40;0.30;;;;;;;6.12;40.74;103116.50;5135940;27;20944;-75
2022/03/21 02:36:35;;;;;;;0.40;0.30;;;;;;;6.09;41.25;103117.72;5136206;27;20457;-75
2022/03/21 02:39:02;;;;;;;0.40;0.30;;;;;;;6.12;40.12;103120.00;5135832;27;20442;-75
2022/03/21 02:41:28;;;;;;;0.40;0.30;;;;;;;6.14;40.57;103119.78;5136235;27;20439;-75
2022/03/21 02:43:58;;;;;;;0.40;0.30;;;;;;;6.18;40.74;103108.41;5136025;27;20469;-75
2022/03/21 02:46:25;;;;;;;2.50;2.40;;;;;;;6.27;40.22;103114.38;5135400;27;20478;-75
2022/03/21 02:48:55;;;;;;;0.70;0.70;;;;;;;6.19;40.31;103109.22;5135285;27;20807;-75
2022/03/21 02:51:23;;;;;;;0.40;0.30;;;;;;;6.22;40.22;103123.09;5136487;27;20447;-75
2022/03/21 02:53:51;;;;;;;0.40;0.30;;;;;;;6.26;40.03;103108.19;5136171;27;20434;-75
2022/03/21 02:56:17;;;;;;;0.40;0.30;;;;;;;6.25;40.44;103114.59;5135827;27;20520;-75
2022/03/21 02:58:44;;;;;;;0.40;0.30;;;;;;;6.21;40.33;103116.06;5135494;27;20810;-75
2022/03/21 03:01:14;;;;;;;8.00;7.60;;;;;;;6.21;40.64;103116.06;5135756;27;20461;-75
2022/03/21 03:03:41;;;;;;;2.30;1.80;;;;;;;6.19;40.31;103122.66;5136280;27;20442;-75
2022/03/21 03:06:08;;;;;;;0.40;0.30;;;;;;;6.16;40.86;103115.84;5135237;27;21030;-75
2022/03/21 03:08:35;;;;;;;0.40;0.30;;;;;;;6.15;40.41;103119.56;5135607;27;20439;-76
2022/03/21 03:11:03;;;;;;;0.63;0.63;;;;;;;6.12;41.11;103114.63;5135653;27;20431;-75
2022/03/21 03:13:29;;;;;;;0.40;0.30;;;;;;;6.04;40.57;103109.44;5135414;27;20919;-75
2022/03/21 03:15:56;;;;;;;0.40;0.30;;;;;;;5.93;41.37;103110.06;5135117;27;20927;-76
2022/03/21 03:18:24;;;;;;;0.40;0.30;;;;;;;5.93;41.63;103105.53;5135188;27;20845;-75
2022/03/21 03:20:52;;;;;;;0.40;0.30;;;;;;;5.87;41.43;103116.25;5135360;27;20618;-75
2022/03/21 03:23:19;;;;;;;0.40;0.30;;;;;;;5.87;41.50;103117.06;5135405;27;20461;-75
2022/03/21 03:25:46;;;;;;;2.20;2.10;;;;;;;5.84;41.19;103120.16;5135300;27;20486;-75
2022/03/21 03:28:13;;;;;;;0.40;0.30;;;;;;;5.76;42.05;103118.53;5134849;27;20473;-75
2022/03/21 03:30:40;;;;;;;0.40;0.30;;;;;;;5.62;41.91;103113.31;5135449;27;20450;-74
2022/03/21 03:33:07;;;;;;;0.40;0.30;;;;;;;5.55;42.30;103118.72;5135065;27;20960;-74
2022/03/21 03:35:35;;;;;;;0.40;0.30;;;;;;;5.49;42.83;103108.75;5135360;27;20442;-75
2022/03/21 03:38:02;;;;;;;0.40;0.30;;;;;;;5.49;42.89;103111.44;5135004;27;20466;-75
2022/03/21 03:40:29;;;;;;;0.40;0.30;;;;;;;5.47;43.10;103118.91;5134817;27;20958;-75
2022/03/21 03:42:55;;;;;;;4.10;3.10;;;;;;;5.45;43.69;103111.03;5135019;27;20931;-75
2022/03/21 03:45:22;;;;;;;0.40;0.30;;;;;;;5.46;43.61;103119.94;5134968;27;20450;-75
2022/03/21 03:47:48;;;;;;;0.40;0.30;;;;;;;5.46;43.61;103110.00;5134942;27;20493;-75
2022/03/21 03:50:15;;;;;;;0.63;0.63;;;;;;;5.51;43.80;103112.09;5134955;27;20451;-75
2022/03/21 03:52:45;;;;;;;0.40;0.30;;;;;;;5.53;43.16;103115.38;5134942;27;20487;-75
2022/03/21 03:55:12;;;;;;;0.40;0.30;;;;;;;5.51;43.71;103117.47;5134868;27;20438;-75
2022/03/21 03:57:38;;;;;;;1.27;1.17;;;;;;;5.47;43.85;103117.03;5134553;27;20459;-75
2022/03/21 04:00:07;;;;;;;1.70;1.60;;;;;;;5.39;43.97;103117.22;5134671;27;20445;-75
2022/03/21 04:03:44;;;;;;;0.50;0.40;;;;;;;5.39;44.07;103127.16;5135128;27;20839;-74
2022/03/21 04:05:21;;;;;;;25.80;12.63;;;;;;;5.34;44.08;103114.31;5134268;27;20435;-75
2022/03/21 04:07:49;;;;;;;0.40;0.30;;;;;;;5.37;44.07;103111.22;5134581;27;20486;-75
2022/03/21 04:10:16;;;;;;;2.00;1.90;;;;;;;5.30;43.44;103116.56;5134573;27;20443;-75
2022/03/21 04:12:44;;;;;;;0.40;0.30;;;;;;;5.27;43.67;103122.38;5134501;27;20793;-74
2022/03/21 04:15:11;;;;;;;4.70;4.47;;;;;;;5.26;43.41;103118.00;5134502;27;20447;-75
2022/03/21 04:17:38;;;;;;;0.40;0.30;;;;;;;5.09;44.09;103129.31;5134531;27;20554;-75
2022/03/21 04:20:05;;;;;;;0.40;0.30;;;;;;;5.06;44.00;103119.81;5134148;28;20427;-75
2022/03/21 04:22:34;;;;;;;0.40;0.30;;;;;;;4.92;44.16;103127.00;5134448;28;20461;-75
2022/03/21 04:25:03;;;;;;;0.87;0.87;;;;;;;4.86;44.41;103130.47;5134394;28;20446;-75
2022/03/21 04:27:29;;;;;;;0.40;0.30;;;;;;;4.87;44.21;103131.28;5133863;28;21010;-75
2022/03/21 04:29:57;;;;;;;0.40;0.30;;;;;;;4.78;44.74;103136.88;5134363;28;20438;-75
2022/03/21 04:32:23;;;;;;;2.93;2.83;;;;;;;4.68;44.89;103128.31;5134351;28;20517;-75
2022/03/21 04:34:50;;;;;;;0.40;0.40;;;;;;;4.64;45.23;103136.97;5134308;28;20445;-75
2022/03/21 04:37:16;;;;;;;0.90;0.90;;;;;;;4.62;45.37;103133.66;5133904;28;20852;-75
2022/03/21 04:39:43;;;;;;;1.53;1.43;;;;;;;4.57;45.56;103141.50;5133969;28;20446;-75
2022/03/21 04:42:11;;;;;;;0.40;0.30;;;;;;;4.52;45.53;103140.22;5134159;28;20454;-75
2022/03/21 04:44:39;;;;;;;0.40;0.30;;;;;;;4.51;45.58;103133.19;5134475;28;20462;-75
2022/03/21 04:47:06;;;;;;;3.80;3.60;;;;;;;4.43;45.91;103138.72;5133725;28;20486;-75
2022/03/21 04:49:33;;;;;;;0.40;0.30;;;;;;;4.39;46.31;103129.41;5134037;28;20431;-75
2022/03/21 04:51:59;;;;;;;0.40;0.30;;;;;;;4.37;46.50;103134.13;5134088;28;20446;-75
2022/03/21 04:54:27;;;;;;;0.40;0.30;;;;;;;4.35;46.59;103138.03;5134140;28;20438;-75
2022/03/21 04:56:53;;;;;;;0.40;0.30;;;;;;;4.45;46.14;103143.88;5134057;28;20459;-74
2022/03/21 04:59:21;;;;;;;0.40;0.30;;;;;;;4.47;46.61;103136.44;5134087;28;20461;-75
2022/03/21 05:01:48;;;;;;;0.40;0.30;;;;;;;4.49;46.50;103139.78;5133902;28;20449;-75
2022/03/21 05:04:14;;;;;;;0.40;0.30;;;;;;;4.49;46.33;103134.41;5134128;28;20467;-75
2022/03/21 05:06:41;;;;;;;6.87;5.57;;;;;;;4.48;46.46;103135.44;5133998;28;20971;-75
2022/03/21 05:09:08;;;;;;;0.53;0.53;;;;;;;4.48;46.83;103138.97;5133998;27;20430;-75
2022/03/21 05:11:34;;;;;;;0.40;0.30;;;;;;;4.48;46.42;103138.97;5136926;27;20446;-74
2022/03/21 05:14:02;;;;;;;0.53;0.53;;;;;;;4.50;46.44;103149.47;5137865;27;20438;-74
2022/03/21 05:16:30;;;;;;;0.40;0.30;;;;;;;4.42;46.48;103142.41;5137701;27;20496;-75
2022/03/21 05:18:57;;;;;;;0.50;0.50;;;;;;;4.44;45.74;103155.66;5137809;27;20541;-75
2022/03/21 05:21:23;;;;;;;5.80;5.33;;;;;;;4.43;45.63;103151.31;5137813;27;20456;-74
2022/03/21 05:32:03;;;;;;;0.40;0.30;;;;;;;4.48;44.80;103156.91;5137424;27;20495;-74
2022/03/21 05:37:14;;;;;;;0.40;0.30;;;;;;;4.50;45.00;103158.38;5137286;27;20430;-75
2022/03/21 05:40:31;;;;;;;0.40;0.30;;;;;;;4.55;44.68;103149.72;5137472;27;20803;-75
2022/03/21 05:42:27;;;;;;;0.40;0.30;;;;;;;4.62;44.57;103149.78;5136946;27;20931;-74
2022/03/21 05:44:53;;;;;;;0.40;0.30;;;;;;;4.68;44.28;103159.72;5137034;27;20489;-75
2022/03/21 05:47:21;;;;;;;0.40;0.30;;;;;;;4.64;44.57;103147.72;5137109;27;20493;-74
2022/03/21 05:49:47;;;;;;;0.40;0.30;;;;;;;4.66;44.67;103153.72;5137113;27;20438;-76
2022/03/21 05:52:13;;;;;;;8.20;6.13;;;;;;;4.72;43.79;103151.06;5137186;27;20473;-75
2022/03/21 05:54:40;;;;;;;0.40;0.30;;;;;;;4.79;43.43;103168.03;5137393;27;20212;-75
2022/03/21 05:57:06;;;;;;;0.40;0.30;;;;;;;4.82;43.53;103156.06;5136916;27;20467;-74
2022/03/21 06:02:17;;;;;;;0.40;0.30;;;;;;;5.02;42.85;103166.91;5136773;27;20406;-74
2022/03/21 06:04:45;;;;;;;6.73;3.47;;;;;;;5.06;42.65;103168.19;5136614;27;20947;-74
2022/03/21 06:07:11;;;;;;;0.50;0.50;;;;;;;5.15;42.64;103158.09;5136591;27;20540;-73
2022/03/21 06:09:38;;;;;;;0.40;0.30;;;;;;;5.21;42.54;103168.84;5136877;27;20438;-74
2022/03/21 06:12:06;;;;;;;1.67;1.57;;;;;;;5.21;43.14;103176.06;5136761;27;20431;-74
2022/03/21 06:14:34;;;;;;;3.13;2.93;;;;;;;5.19;42.52;103181.66;5137519;27;20854;-73
2022/03/21 06:17:01;;;;;;;0.40;0.30;;;;;;;5.24;42.35;103179.19;5136706;27;20833;-74
2022/03/21 06:19:27;;;;;;;0.40;0.30;;;;;;;5.31;42.03;103179.22;5136640;27;20841;-74
2022/03/21 06:21:55;;;;;;;0.73;0.73;;;;;;;5.37;42.38;103181.09;5136235;27;20809;-74
2022/03/21 06:24:21;;;;;;;42.10;38.10;;;;;;;5.48;41.85;103182.38;5136516;27;20443;-74
2022/03/21 06:26:48;;;;;;;0.40;0.30;;;;;;;5.48;42.07;103182.38;5135908;27;20891;-73
2022/03/21 06:29:14;;;;;;;0.40;0.30;;;;;;;5.53;41.28;103178.06;5136424;27;20440;-76
2022/03/21 06:31:41;;;;;;;0.40;0.30;;;;;;;5.59;41.76;103183.66;5136468;27;20438;-77
2022/03/21 06:34:07;;;;;;;0.40;0.30;;;;;;;5.55;41.48;103186.75;5137011;27;20442;-76
2022/03/21 06:36:34;;;;;;;0.40;0.30;;;;;;;5.59;41.87;103189.84;5136157;27;20453;-77
2022/03/21 06:39:02;;;;;;;0.40;0.30;;;;;;;5.55;41.27;103186.75;5136124;27;20447;-76
2022/03/21 06:41:28;;;;;;;0.40;0.40;;;;;;;5.59;40.76;103178.28;5136090;27;20442;-76
2022/03/21 06:43:55;;;;;;;0.80;0.80;;;;;;;5.69;41.24;103187.59;5135892;27;20431;-77
2022/03/21 06:46:21;;;;;;;0.50;0.50;;;;;;;5.84;40.26;103182.03;5135757;27;20834;-77
2022/03/21 06:48:48;;;;;;;0.40;0.30;;;;;;;5.82;40.78;103189.47;5135754;27;20450;-76
2022/03/21 06:51:16;;;;;;;0.40;0.30;;;;;;;5.75;41.14;103184.06;5136064;27;20451;-77
2022/03/21 06:53:43;;;;;;;0.40;0.30;;;;;;;5.79;40.74;103190.72;5136069;27;20454;-76
2022/03/21 06:56:12;;;;;;;0.40;0.30;;;;;;;5.86;41.23;103189.91;5135908;27;20459;-76
2022/03/21 06:58:38;;;;;;;0.40;0.30;;;;;;;5.89;40.81;103184.94;5136278;27;20443;-76
2022/03/21 07:01:05;;;;;;;0.40;0.30;;;;;;;6.00;40.20;103191.59;5135828;27;20443;-76
2022/03/21 07:03:32;;;;;;;0.40;0.40;;;;;;;6.02;39.98;103192.22;5135762;27;20790;-76
2022/03/21 07:05:59;;;;;;;0.40;0.30;;;;;;;5.99;40.35;103192.66;5135730;27;20439;-76
2022/03/21 07:08:28;;;;;;;0.40;0.30;;;;;;;6.10;40.27;103192.00;5135320;27;20475;-77
2022/03/21 07:10:54;;;;;;;0.40;0.40;;;;;;;6.12;39.63;103195.34;5135613;27;20866;-77
2022/03/21 07:13:27;;;;;;;8.80;8.23;;;;;;;6.18;40.03;103205.28;5135497;27;20533;-76
2022/03/21 07:15:54;;;;;;;0.40;0.30;;;;;;;6.22;39.49;103205.69;5135370;27;20443;-76
2022/03/21 07:18:21;;;;;;;0.40;0.30;;;;;;;6.27;39.50;103198.63;5135593;27;20489;-76
2022/03/21 07:20:47;;;;;;;0.40;0.30;;;;;;;6.29;39.45;103191.22;5135027;27;20923;-76
2022/03/21 07:23:14;;;;;;;0.40;0.30;;;;;;;6.35;38.82;103194.09;5135251;27;20446;-77
2022/03/21 07:25:41;;;;;;;0.40;0.30;;;;;;;6.45;39.02;103199.88;5135374;27;20879;-77
2022/03/21 07:28:08;;;;;;;0.57;0.57;;;;;;;6.60;38.30;103200.50;5134773;27;20482;-77
2022/03/21 07:30:37;;;;;;;4.43;3.60;;;;;;;6.69;38.97;103201.09;5135369;27;20453;-76
2022/03/21 07:33:03;;;;;;;0.40;0.30;;;;;;;6.79;37.69;103202.31;5134665;27;20516;-77
2022/03/21 07:35:30;;;;;;;0.93;0.87;;;;;;;6.84;38.42;103190.91;5135389;27;20443;-75
2022/03/21 07:37:57;;;;;;;0.40;0.30;;;;;;;6.86;37.96;103196.06;5134719;27;20980;-76
2022/03/21 07:40:26;;;;;;;0.40;0.30;;;;;;;6.96;37.59;103197.31;5135444;27;20461;-76
2022/03/21 07:42:53;;;;;;;0.40;0.30;;;;;;;7.05;37.45;103190.63;5135217;27;20533;-77
2022/03/21 07:48:05;;;;;;;2.87;2.67;;;;;;;7.22;37.88;103196.38;5134762;27;20470;-75
2022/03/21 07:50:32;;;;;;;3.60;3.40;;;;;;;7.22;37.91;103201.78;5143206;22;21008;-69
2022/03/21 07:53:00;;;;;;;0.40;0.30;;;;;;;7.22;37.84;103191.00;5113960;28;20439;-73
2022/03/21 07:55:27;;;;;;;1.23;1.23;;;;;;;7.22;37.64;103192.84;5113755;28;20440;-73
2022/03/21 07:57:53;;;;;;;0.40;0.30;;;;;;;7.33;37.13;103195.69;5113902;28;20443;-73
2022/03/21 08:00:20;;;;;;;0.40;0.30;;;;;;;7.43;37.52;103191.69;5113840;28;20435;-73
2022/03/21 08:02:46;;;;;;;0.40;0.40;;;;;;;7.42;37.06;103190.88;5114391;28;20440;-73
2022/03/21 08:05:14;;;;;;;0.40;0.30;;;;;;;7.55;36.86;103187.28;5113943;28;20482;-73
2022/03/21 08:07:41;;;;;;;0.40;0.30;;;;;;;7.64;37.01;103183.28;5113450;28;21023;-76
2022/03/21 08:10:08;;;;;;;0.40;0.30;;;;;;;7.76;36.77;103186.94;5113741;28;20444;-75
2022/03/21 08:12:35;;;;;;;0.40;0.30;;;;;;;7.77;37.21;103190.47;5113830;28;20471;-72
2022/03/21 08:15:02;;;;;;;0.40;0.30;;;;;;;7.75;37.25;103200.66;5113443;28;20447;-74
2022/03/21 08:17:28;;;;;;;0.40;0.30;;;;;;;7.83;37.08;103195.00;5113757;28;20443;-76
2022/03/21 08:19:55;;;;;;;0.40;0.30;;;;;;;7.97;36.28;103196.56;5113678;28;20828;-76
2022/03/21 08:22:23;;;;;;;0.40;0.30;;;;;;;7.90;36.77;103201.19;5113577;28;20458;-76
2022/03/21 08:24:49;;;;;;;0.40;0.30;;;;;;;7.99;36.25;103199.03;5113614;28;20448;-75
2022/03/21 08:27:16;;;;;;;0.73;0.73;;;;;;;8.07;36.43;103196.09;5113259;28;20479;-75
2022/03/21 08:29:42;;;;;;;4.00;3.80;;;;;;;8.14;36.03;103193.31;5113627;28;20442;-72
2022/03/21 08:32:09;;;;;;;0.50;0.50;;;;;;;8.26;34.91;103197.78;5113825;28;20471;-73
2022/03/21 08:34:35;;;;;;;0.70;0.70;;;;;;;8.38;35.52;103183.59;5113534;28;20462;-71
2022/03/21 08:37:02;;;;;;;1.20;1.13;;;;;;;8.43;35.88;103191.84;5113459;28;20450;-71
2022/03/21 08:39:30;;;;;;;0.40;0.30;;;;;;;8.49;35.34;103186.38;5113231;28;20465;-72
2022/03/21 08:41:56;;;;;;;0.40;0.30;;;;;;;8.57;35.54;103187.97;5113382;28;20516;-71
2022/03/21 08:44:22;;;;;;;0.40;0.30;;;;;;;8.64;35.12;103183.34;5113164;28;20952;-69
2022/03/21 08:46:49;;;;;;;3.50;3.30;;;;;;;8.73;35.20;103179.28;5116798;28;20492;-70
2022/03/21 08:49:24;;;;;;;0.40;0.30;;;;;;;8.78;34.64;103184.03;5117447;28;20490;-69
2022/03/21 08:51:51;;;;;;;0.40;0.30;;;;;;;8.84;33.91;103181.22;5117022;28;20528;-69
2022/03/21 08:54:17;;;;;;;0.40;0.30;;;;;;;8.87;34.42;103177.28;5117115;28;20949;-69
2022/03/21 08:56:47;;;;;;;0.40;0.30;;;;;;;8.94;34.39;103178.03;5117397;28;20443;-69
2022/03/21 08:59:13;;;;;;;0.40;0.30;;;;;;;9.10;34.29;103173.88;5117308;28;20445;-70
2022/03/21 09:01:40;;;;;;;1.27;1.20;;;;;;;9.23;33.59;103171.00;5117252;28;20463;-69
2022/03/21 09:04:08;;;;;;;0.40;0.30;;;;;;;9.28;32.83;103168.44;5116968;28;20467;-70
2022/03/21 09:06:35;;;;;;;0.40;0.20;;;;;;;9.34;32.17;103167.53;5117172;28;20447;-73
2022/03/21 09:09:01;;;;;;;0.40;0.30;;;;;;;9.35;33.22;103155.66;5116870;28;20490;-70
2022/03/21 09:11:28;;;;;;;0.40;0.30;;;;;;;9.39;33.35;103169.56;5116844;28;20455;-69
2022/03/21 09:13:55;;;;;;;0.40;0.30;;;;;;;9.54;33.23;103156.41;5116941;28;20446;-69
2022/03/21 09:16:22;;;;;;;0.40;0.30;;;;;;;9.62;33.27;103155.28;5117278;28;20439;-69
2022/03/21 09:18:49;;;;;;;0.40;0.30;;;;;;;9.65;33.29;103148.56;5116612;28;20807;-71
2022/03/21 09:21:15;;;;;;;0.40;0.30;;;;;;;9.68;32.91;103157.03;5116810;28;20473;-69
2022/03/21 09:23:42;;;;;;;1.30;1.23;;;;;;;9.67;32.81;103151.88;5116815;28;20435;-68
2022/03/21 09:26:10;;;;;;;0.40;0.30;;;;;;;9.71;32.73;103147.66;5116766;28;20552;-69
2022/03/21 09:28:37;;;;;;;0.40;0.30;;;;;;;9.76;32.02;103143.19;5116692;28;20479;-69
2022/03/21 09:31:06;;;;;;;0.40;0.30;;;;;;;9.81;33.16;103145.19;5116461;28;20451;-69
2022/03/21 09:33:33;;;;;;;0.40;0.30;;;;;;;9.91;32.71;103145.44;5116090;28;20497;-70
2022/03/21 09:36:00;;;;;;;0.53;0.50;;;;;;;9.86;33.07;103148.84;5115979;28;20435;-69
2022/03/21 09:38:26;;;;;;;0.40;0.30;;;;;;;9.85;33.40;103140.97;5116375;28;20431;-69
2022/03/21 09:40:52;;;;;;;0.40;0.30;;;;;;;9.85;33.00;103151.78;5116154;28;20466;-69
2022/03/21 09:43:19;;;;;;;0.40;0.30;;;;;;;9.93;32.55;103145.22;5116073;28;20446;-69
2022/03/21 09:45:45;;;;;;;0.40;0.30;;;;;;;9.98;33.72;103140.75;5116168;28;20440;-68
2022/03/21 09:48:16;;;;;;;0.40;0.40;;;;;;;10.05;33.01;103146.06;5115943;28;20499;-69
2022/03/21 09:50:45;;;;;;;3.03;2.87;;;;;;;10.08;33.29;103146.41;5115678;28;20511;-69
2022/03/21 09:53:15;;;;;;;0.40;0.30;;;;;;;10.38;37.83;103140.09;5115911;28;20523;-69
2022/03/21 09:55:43;;;;;;;0.40;0.30;;;;;;;10.77;36.12;103134.97;5115412;28;20435;-69
2022/03/21 09:58:10;;;;;;;0.40;0.30;;;;;;;10.79;31.16;103136.38;5115612;28;20440;-69
2022/03/21 10:00:37;;;;;;;0.40;0.30;;;;;;;10.86;33.28;103131.66;5115630;28;20493;-69
2022/03/21 10:03:04;;;;;;;0.40;0.20;;;;;;;10.90;35.48;103137.41;5115633;28;20479;-69
2022/03/21 10:05:33;;;;;;;0.50;0.50;;;;;;;10.99;33.54;103137.88;5115747;28;20451;-69
2022/03/21 10:08:28;;;;;;;0.40;0.30;;;;;;;11.01;32.20;103131.13;5115546;28;20487;-69
2022/03/21 10:10:56;;;;;;;0.40;0.30;;;;;;;11.21;34.18;103125.28;5056508;28;20926;-69
2022/03/21 10:13:24;;;;;;;0.40;0.30;;;;;;;11.28;31.88;103128.66;5115916;28;20428;-70
2022/03/21 10:16:07;;;;;;;0.43;0.30;;;;;;;11.40;34.33;103125.88;5115789;28;20497;-69
2022/03/21 10:18:33;;;;;;;0.93;0.93;;;;;;;11.46;31.24;103132.22;5115948;28;20828;-68
2022/03/21 10:21:12;;;;;;;0.40;0.30;;;;;;;11.67;32.65;103120.66;5115419;28;20465;-69
2022/03/21 10:23:38;;;;;;;0.40;0.30;;;;;;;11.79;33.13;103129.56;5115438;28;20951;-69
2022/03/21 10:26:27;;;;;;;0.40;0.40;;;;;;;11.89;32.48;103128.09;5115022;28;20963;-69
2022/03/21 10:28:55;;;;;;;4.73;4.43;;;;;;;11.98;31.98;103129.34;5115441;28;20456;-69
2022/03/21 10:31:36;;;;;;;1.73;1.63;;;;;;;11.99;30.59;103128.25;5115372;28;20964;-69
2022/03/21 10:34:04;;;;;;;0.40;0.30;;;;;;;12.04;32.64;103131.06;5114683;28;20928;-69
2022/03/21 10:36:32;;;;;;;1.57;1.47;;;;;;;12.09;31.27;103128.44;5114973;28;20440;-69
2022/03/21 10:39:09;;;;;;;0.40;0.30;;;;;;;12.22;33.11;103117.22;5114826;28;20439;-69
2022/03/21 10:41:38;;;;;;;3.03;2.83;;;;;;;12.35;31.52;103127.75;5114670;28;20877;-68
2022/03/21 10:44:06;;;;;;;0.40;0.30;;;;;;;12.45;30.99;103128.97;5114790;28;20436;-70
2022/03/21 10:46:33;;;;;;;2.60;2.50;;;;;;;12.46;32.82;103127.88;5114941;28;20446;-69
2022/03/21 10:49:05;;;;;;;0.40;0.30;;;;;;;12.45;30.47;103126.25;5114447;28;20887;-68
2022/03/21 10:51:54;;;;;;;2.20;1.17;;;;;;;12.47;30.42;103124.06;5114410;28;20475;-68
2022/03/21 10:54:42;;;;;;;1.03;0.93;;;;;;;12.50;32.79;103127.13;5107077;28;20447;-70
2022/03/21 10:57:26;;;;;;;0.40;0.30;;;;;;;12.70;32.01;103117.56;5114480;28;20435;-67
2022/03/21 10:59:53;;;;;;;0.40;0.30;;;;;;;12.91;30.99;103126.81;5114331;28;20416;-70
2022/03/21 11:02:19;;;;;;;0.40;0.30;;;;;;;12.94;32.43;103112.72;5114323;28;20460;-70
2022/03/21 11:04:46;;;;;;;0.40;0.30;;;;;;;13.05;30.95;103114.47;5114309;28;20444;-70
2022/03/21 11:07:14;;;;;;;0.40;0.30;;;;;;;13.24;31.07;103123.97;5114454;28;20790;-70
2022/03/21 11:09:42;;;;;;;0.40;0.30;;;;;;;13.37;29.99;103118.13;5114072;28;20492;-70
2022/03/21 11:12:10;;;;;;;0.40;0.30;;;;;;;13.45;29.91;103111.34;5114250;28;20459;-70
2022/03/21 11:14:39;;;;;;;0.60;0.60;;;;;;;13.44;31.23;103115.16;5114049;28;20439;-71
2022/03/21 11:17:06;;;;;;;0.40;0.30;;;;;;;13.58;30.83;103110.13;5114021;28;20471;-69
2022/03/21 11:19:33;;;;;;;1.37;1.27;;;;;;;13.75;30.35;103105.38;5114165;28;20459;-69
2022/03/21 11:22:00;;;;;;;0.40;0.30;;;;;;;13.99;30.00;103113.16;5114032;28;20456;-70
2022/03/21 11:24:28;;;;;;;0.40;0.30;;;;;;;14.38;29.72;103110.94;5113747;28;20813;-69
2022/03/21 11:27:03;;;;;;;0.40;0.20;;;;;;;15.24;29.04;103106.94;5113915;28;20435;-69
2022/03/21 11:29:41;;;;;;;0.40;0.27;;;;;;;16.20;26.79;103114.31;5113557;28;20475;-70
2022/03/21 11:32:22;;;;;;;0.40;0.30;;;;;;;16.69;26.93;103105.44;5114084;28;20467;-69
2022/03/21 11:34:59;;;;;;;0.50;0.40;;;;;;;17.44;25.46;103109.91;5114110;28;20434;-73
2022/03/21 11:37:28;;;;;;;0.60;0.60;;;;;;;18.27;24.85;103101.50;5114194;28;20427;-69
2022/03/21 11:40:31;;;;;;;0.40;0.30;;;;;;;18.57;23.46;103105.00;5114036;28;20534;-70
2022/03/21 11:43:26;;;;;;;0.40;0.30;;;;;;;19.14;24.69;103103.97;5113978;28;20500;-70
2022/03/21 11:45:55;;;;;;;0.40;0.23;;;;;;;19.88;23.49;103100.63;5113660;28;20456;-69
2022/03/21 11:48:38;;;;;;;0.40;0.20;;;;;;;20.80;22.58;103098.78;5114144;28;20917;-69
2022/03/21 11:51:36;;;;;;;0.50;0.40;;;;;;;20.90;21.26;103104.09;5113334;28;20502;-69
2022/03/21 11:54:03;;;;;;;0.40;0.30;;;;;;;20.87;21.68;103093.69;5113687;28;20813;-69
2022/03/21 11:56:57;;;;;;;0.40;0.30;;;;;;;21.52;22.46;103093.28;5114006;28;20440;-70